This is the latest recevied weather packets stored in our database for station/object W6TKD-13. If no packets are shown the sender has not sent any weather packets the latest 10 day(s).
| Time | Temp. | Humidity | Pressure | Rain* | Wind** | Luminosity | Snow |
|---|---|---|---|---|---|---|---|
| 1777495074 | 31.67° C | 37% | 1016.5 hPa | 0 mm | - | - | - |
| 1777494407 | 31.11° C | 38% | 1016.6 hPa | 0 mm | - | - | - |
| 1777493740 | 30° C | 39% | 1016.7 hPa | 0 mm | - | - | - |
| 1777493073 | 28.33° C | 41% | 1016.7 hPa | 0 mm | - | - | - |
| 1777492407 | 25.56° C | 44% | 1016.9 hPa | 0 mm | - | - | - |
| 1777491741 | 23.89° C | 45% | 1017 hPa | 0 mm | - | - | - |
| 1777491073 | 23.33° C | 45% | 1017.1 hPa | 0 mm | - | - | - |
| 1777490406 | 23.89° C | 44% | 1017.2 hPa | 0 mm | - | - | - |
| 1777489740 | 25° C | 43% | 1017.2 hPa | 0 mm | - | - | - |
| 1777489071 | 26.11° C | 42% | 1017.2 hPa | 0 mm | - | - | - |
| 1777488404 | 27.78° C | 40% | 1017.1 hPa | 0 mm | - | - | - |
| 1777487738 | 30° C | 39% | 1017.2 hPa | 0 mm | - | - | - |
| 1777487072 | 31.67° C | 39% | 1017.2 hPa | 0 mm | - | - | - |
| 1777486403 | 31.67° C | 39% | 1017.3 hPa | 0 mm | - | - | - |
| 1777485736 | 32.22° C | 38% | 1017.2 hPa | 0 mm | - | - | - |
| 1777485069 | 32.78° C | 38% | 1017.4 hPa | 0 mm | - | - | - |
| 1777484403 | 33.33° C | 38% | 1017.4 hPa | 0 mm | - | - | - |
| 1777483736 | 33.33° C | 38% | 1017.4 hPa | 0 mm | - | - | - |
| 1777483068 | 32.78° C | 39% | 1017.4 hPa | 0 mm | - | - | - |
| 1777482401 | 32.22° C | 40% | 1017.5 hPa | 0 mm | - | - | - |
| 1777481735 | 31.67° C | 41% | 1017.7 hPa | 0 mm | - | - | - |
| 1777481067 | 31.11° C | 42% | 1017.9 hPa | 0 mm | - | - | - |
| 1777480400 | 30° C | 45% | 1018 hPa | 0 mm | - | - | - |
| 1777479733 | 27.78° C | 48% | 1018 hPa | 0 mm | - | - | - |
| 1777479066 | 25° C | 51% | 1018.1 hPa | 0 mm | - | - | - |
* Rain since midnight (hover to see other rain measurements)
** Current wind speed in m/s (hover to see current wind gust speed)